Current Weather Conditions: station 46183

sailwx.info

Wind from 220 at 7 knots gusting 9

Wave height 0.7 meters (2 feet), 7 second period

Air temperature 11.6° C

Last reported at 2016-Sep-27 07:00 UTC.
Time now 2016-Sep-27 08:44 UTC

Location: N 53°36' W 131°06'.
View on Google Maps.

See reports from other nearby stations

  
Tides and Currents Weather Stations Pressure Air Temp Water Temp Dewpoint Dewpoint Depression Visibility Wind Speed Wind Dir Waves Ship Positions
date/time (UTC)wind fromknots sea level pressurealtimeterstation pressurevisibilityair tempwater tempwave heightnotes
2016-Sep-27 07:00 220 7 gusting 9 11.6 0.7
2016-Sep-27 06:00 190 7 gusting 7 11.4 0.7
2016-Sep-27 05:00 200 9 gusting 11 11.4 0.7
2016-Sep-27 04:00 190 7 gusting 9 10.9 0.7
2016-Sep-27 03:00 170 7 gusting 9 10.6 0.8
2016-Sep-27 02:00 140 3 gusting 5 10.7 0.8
2016-Sep-27 01:00 240 3 gusting 5 11.2 0.8
2016-Sep-27 00:00 180 1 gusting 1 11.9 0.9
2016-Sep-26 23:00 340 5 gusting 7 11.1 1.0
2016-Sep-26 22:00 270 5 gusting 5 12.2 1.0
2016-Sep-26 21:00 280 7 gusting 11 12.3 1.2
2016-Sep-26 20:00 280 5 gusting 7 12.3 1.3
2016-Sep-26 19:00 280 9 gusting 11 12.1 1.4
2016-Sep-26 18:00 290 7 gusting 11 11.8 1.7
2016-Sep-26 17:00 300 7 gusting 9 11.7 1.9
2016-Sep-26 16:00 310 7 gusting 9 11.4 2.1
2016-Sep-26 15:00 310 9 gusting 15 11.6 2.5
2016-Sep-26 14:00 310 7 gusting 11 11.6 2.5
2016-Sep-26 13:00 330 5 gusting 9 11.5 2.9
2016-Sep-26 12:00 340 7 gusting 11 11.3 2.9
2016-Sep-26 11:00 320 15 gusting 21 11.5 3.1
2016-Sep-26 10:00 170 15 gusting 19 12.8 3.3
2016-Sep-26 09:00 170 17 gusting 21 13.0 3.9
2016-Sep-26 08:00 170 23 gusting 27 13.1 4.3
2016-Sep-26 07:00 160 29 gusting 34 13.5 4.7
2016-Sep-26 06:00 150 31 gusting 38 13.4 4.5
2016-Sep-26 05:00 150 31 gusting 38 13.4 4.1
2016-Sep-26 04:00 140 31 13.4 3.7
2016-Sep-26 03:00 150 29 gusting 34 13.4 3.5
2016-Sep-26 02:00 150 31 gusting 38 13.4 3.3
2016-Sep-26 01:00 150 29 gusting 34 13.2 2.9
2016-Sep-26 00:00 140 27 gusting 36 13.4 2.7
2016-Sep-25 23:00 150 25 gusting 31 13.9 2.2
2016-Sep-25 22:00 150 19 gusting 23 13.1 2.2
2016-Sep-25 21:00 120 15 gusting 19 11.9 2.3
2016-Sep-25 20:00 130 15 gusting 21 12.1 2.3
2016-Sep-25 19:00 140 13 gusting 15 12.2 2.5
2016-Sep-25 18:00 120 11 gusting 15 11.7 2.9
2016-Sep-25 17:00 140 11 gusting 15 11.4 3.4
2016-Sep-25 16:00 230 3 gusting 5 11.5 3.4
2016-Sep-25 15:00 230 13 gusting 17 11.5 3.5
2016-Sep-25 14:00 230 11 gusting 15 12.1 3.4
2016-Sep-25 13:00 230 7 12.4 3.9
2016-Sep-25 12:00 200 7 gusting 9 12.2 3.7
2016-Sep-25 11:00 160 11 11.9
2016-Sep-25 10:00 140 19 gusting 23 12.1 3.8
2016-Sep-25 09:00 130 25 gusting 33 11.9 4.1
2016-Sep-25 08:00 120 25 gusting 31 11.8 3.3